sensor_id;sensor_type;location;lat;lon;timestamp;P1;durP1;ratioP1;P2;durP2;ratioP2
12925;SDS011;6529;50.566;9.774;2023-06-22T00:04:29;8.60;;;6.40;;
12925;SDS011;6529;50.566;9.774;2023-06-22T00:06:55;7.57;;;6.20;;
12925;SDS011;6529;50.566;9.774;2023-06-22T00:09:20;7.85;;;6.55;;
12925;SDS011;6529;50.566;9.774;2023-06-22T00:11:46;6.78;;;5.95;;
12925;SDS011;6529;50.566;9.774;2023-06-22T00:14:11;7.72;;;6.45;;
12925;SDS011;6529;50.566;9.774;2023-06-22T00:16:37;7.28;;;6.15;;
12925;SDS011;6529;50.566;9.774;2023-06-22T00:19:02;6.68;;;6.07;;
12925;SDS011;6529;50.566;9.774;2023-06-22T00:21:28;6.97;;;6.28;;
12925;SDS011;6529;50.566;9.774;2023-06-22T00:23:54;6.93;;;6.32;;
12925;SDS011;6529;50.566;9.774;2023-06-22T00:26:20;7.20;;;6.50;;
12925;SDS011;6529;50.566;9.774;2023-06-22T00:28:46;7.00;;;6.30;;
12925;SDS011;6529;50.566;9.774;2023-06-22T00:31:12;7.50;;;6.70;;
12925;SDS011;6529;50.566;9.774;2023-06-22T00:33:38;8.52;;;7.55;;
12925;SDS011;6529;50.566;9.774;2023-06-22T00:36:04;8.50;;;7.60;;
12925;SDS011;6529;50.566;9.774;2023-06-22T00:38:30;8.77;;;7.32;;
12925;SDS011;6529;50.566;9.774;2023-06-22T00:40:56;9.23;;;7.03;;
12925;SDS011;6529;50.566;9.774;2023-06-22T00:43:21;9.70;;;7.43;;
12925;SDS011;6529;50.566;9.774;2023-06-22T00:45:47;10.18;;;7.10;;
12925;SDS011;6529;50.566;9.774;2023-06-22T00:48:13;8.57;;;6.90;;
12925;SDS011;6529;50.566;9.774;2023-06-22T00:50:39;7.57;;;6.82;;
12925;SDS011;6529;50.566;9.774;2023-06-22T00:53:06;9.65;;;6.63;;
12925;SDS011;6529;50.566;9.774;2023-06-22T00:55:42;10.45;;;6.88;;
12925;SDS011;6529;50.566;9.774;2023-06-22T00:58:10;7.30;;;6.40;;
12925;SDS011;6529;50.566;9.774;2023-06-22T01:00:37;7.75;;;6.88;;
12925;SDS011;6529;50.566;9.774;2023-06-22T01:03:03;9.73;;;7.57;;
12925;SDS011;6529;50.566;9.774;2023-06-22T01:05:33;8.80;;;7.90;;
12925;SDS011;6529;50.566;9.774;2023-06-22T01:08:08;8.93;;;8.03;;
12925;SDS011;6529;50.566;9.774;2023-06-22T01:16:22;8.97;;;8.00;;
12925;SDS011;6529;50.566;9.774;2023-06-22T01:18:52;9.23;;;8.33;;
12925;SDS011;6529;50.566;9.774;2023-06-22T01:21:21;9.27;;;7.97;;
12925;SDS011;6529;50.566;9.774;2023-06-22T01:29:46;8.35;;;7.50;;
12925;SDS011;6529;50.566;9.774;2023-06-22T01:32:17;8.77;;;7.88;;
12925;SDS011;6529;50.566;9.774;2023-06-22T01:34:43;8.35;;;7.50;;
12925;SDS011;6529;50.566;9.774;2023-06-22T01:37:10;9.00;;;8.10;;
12925;SDS011;6529;50.566;9.774;2023-06-22T01:39:37;9.02;;;8.23;;
12925;SDS011;6529;50.566;9.774;2023-06-22T01:42:03;9.75;;;8.38;;
12925;SDS011;6529;50.566;9.774;2023-06-22T01:44:30;11.37;;;7.93;;
12925;SDS011;6529;50.566;9.774;2023-06-22T01:46:56;9.45;;;8.55;;
12925;SDS011;6529;50.566;9.774;2023-06-22T01:49:21;10.10;;;8.38;;
12925;SDS011;6529;50.566;9.774;2023-06-22T01:51:48;12.98;;;8.98;;
12925;SDS011;6529;50.566;9.774;2023-06-22T01:54:14;10.35;;;9.25;;
12925;SDS011;6529;50.566;9.774;2023-06-22T01:56:39;10.43;;;9.00;;
12925;SDS011;6529;50.566;9.774;2023-06-22T02:02:04;11.68;;;9.65;;
12925;SDS011;6529;50.566;9.774;2023-06-22T02:04:42;12.13;;;9.55;;
12925;SDS011;6529;50.566;9.774;2023-06-22T02:07:13;11.48;;;10.38;;
12925;SDS011;6529;50.566;9.774;2023-06-22T02:09:43;11.05;;;9.75;;
12925;SDS011;6529;50.566;9.774;2023-06-22T02:12:11;10.90;;;9.88;;
12925;SDS011;6529;50.566;9.774;2023-06-22T02:14:38;11.07;;;9.98;;
12925;SDS011;6529;50.566;9.774;2023-06-22T02:17:05;12.25;;;10.35;;
12925;SDS011;6529;50.566;9.774;2023-06-22T02:19:37;10.95;;;9.85;;
12925;SDS011;6529;50.566;9.774;2023-06-22T02:22:04;10.23;;;9.23;;
12925;SDS011;6529;50.566;9.774;2023-06-22T02:24:30;10.40;;;9.33;;
12925;SDS011;6529;50.566;9.774;2023-06-22T02:27:00;10.55;;;9.55;;
12925;SDS011;6529;50.566;9.774;2023-06-22T02:29:27;11.18;;;10.07;;
12925;SDS011;6529;50.566;9.774;2023-06-22T02:31:53;10.07;;;9.05;;
12925;SDS011;6529;50.566;9.774;2023-06-22T02:34:19;10.40;;;9.32;;
12925;SDS011;6529;50.566;9.774;2023-06-22T02:36:45;12.00;;;10.00;;
12925;SDS011;6529;50.566;9.774;2023-06-22T02:39:17;10.65;;;9.63;;
12925;SDS011;6529;50.566;9.774;2023-06-22T02:41:42;11.00;;;9.88;;
12925;SDS011;6529;50.566;9.774;2023-06-22T02:44:08;11.23;;;10.13;;
12925;SDS011;6529;50.566;9.774;2023-06-22T02:46:33;11.20;;;9.98;;
12925;SDS011;6529;50.566;9.774;2023-06-22T02:49:00;12.48;;;11.18;;
12925;SDS011;6529;50.566;9.774;2023-06-22T02:51:26;11.52;;;10.43;;
12925;SDS011;6529;50.566;9.774;2023-06-22T02:53:51;11.33;;;10.00;;
12925;SDS011;6529;50.566;9.774;2023-06-22T02:56:21;11.73;;;10.53;;
12925;SDS011;6529;50.566;9.774;2023-06-22T02:58:50;11.73;;;10.53;;
12925;SDS011;6529;50.566;9.774;2023-06-22T03:01:16;12.30;;;11.00;;
12925;SDS011;6529;50.566;9.774;2023-06-22T03:03:41;11.00;;;9.83;;
12925;SDS011;6529;50.566;9.774;2023-06-22T03:06:07;11.93;;;10.80;;
12925;SDS011;6529;50.566;9.774;2023-06-22T03:08:33;11.90;;;10.70;;
12925;SDS011;6529;50.566;9.774;2023-06-22T03:10:59;11.90;;;10.43;;
12925;SDS011;6529;50.566;9.774;2023-06-22T03:13:24;12.67;;;11.37;;
12925;SDS011;6529;50.566;9.774;2023-06-22T03:15:50;11.63;;;10.50;;
12925;SDS011;6529;50.566;9.774;2023-06-22T03:18:16;12.77;;;11.57;;
12925;SDS011;6529;50.566;9.774;2023-06-22T03:20:41;14.07;;;12.05;;
12925;SDS011;6529;50.566;9.774;2023-06-22T03:23:07;12.77;;;11.48;;
12925;SDS011;6529;50.566;9.774;2023-06-22T03:25:32;12.05;;;10.85;;
12925;SDS011;6529;50.566;9.774;2023-06-22T03:27:58;12.20;;;11.00;;
12925;SDS011;6529;50.566;9.774;2023-06-22T03:30:25;11.40;;;10.23;;
12925;SDS011;6529;50.566;9.774;2023-06-22T03:32:51;11.68;;;10.48;;
12925;SDS011;6529;50.566;9.774;2023-06-22T03:35:16;12.18;;;10.82;;
12925;SDS011;6529;50.566;9.774;2023-06-22T03:37:42;11.65;;;10.48;;
12925;SDS011;6529;50.566;9.774;2023-06-22T03:40:07;11.52;;;10.43;;
12925;SDS011;6529;50.566;9.774;2023-06-22T03:42:34;11.75;;;9.90;;
12925;SDS011;6529;50.566;9.774;2023-06-22T03:45:01;10.45;;;9.30;;
12925;SDS011;6529;50.566;9.774;2023-06-22T03:47:28;10.18;;;9.23;;
12925;SDS011;6529;50.566;9.774;2023-06-22T03:49:54;9.75;;;8.75;;
12925;SDS011;6529;50.566;9.774;2023-06-22T03:52:20;9.82;;;8.82;;
12925;SDS011;6529;50.566;9.774;2023-06-22T03:54:47;9.90;;;8.90;;
12925;SDS011;6529;50.566;9.774;2023-06-22T03:57:13;9.52;;;8.63;;
12925;SDS011;6529;50.566;9.774;2023-06-22T03:59:38;9.93;;;8.93;;
12925;SDS011;6529;50.566;9.774;2023-06-22T04:02:04;10.93;;;9.15;;
12925;SDS011;6529;50.566;9.774;2023-06-22T04:04:29;11.35;;;10.02;;
12925;SDS011;6529;50.566;9.774;2023-06-22T04:06:55;12.35;;;9.70;;
12925;SDS011;6529;50.566;9.774;2023-06-22T04:09:20;10.30;;;9.30;;
12925;SDS011;6529;50.566;9.774;2023-06-22T04:11:46;10.95;;;9.80;;
12925;SDS011;6529;50.566;9.774;2023-06-22T04:14:12;9.97;;;8.97;;
12925;SDS011;6529;50.566;9.774;2023-06-22T04:16:38;11.27;;;9.65;;
12925;SDS011;6529;50.566;9.774;2023-06-22T04:19:03;10.18;;;9.18;;
12925;SDS011;6529;50.566;9.774;2023-06-22T04:21:29;9.90;;;9.00;;
12925;SDS011;6529;50.566;9.774;2023-06-22T04:23:54;10.77;;;9.68;;
12925;SDS011;6529;50.566;9.774;2023-06-22T04:26:20;10.65;;;9.55;;
12925;SDS011;6529;50.566;9.774;2023-06-22T04:28:46;10.95;;;9.73;;
12925;SDS011;6529;50.566;9.774;2023-06-22T04:31:16;10.52;;;9.20;;
12925;SDS011;6529;50.566;9.774;2023-06-22T04:33:44;10.48;;;9.38;;
12925;SDS011;6529;50.566;9.774;2023-06-22T04:36:10;11.60;;;10.02;;
12925;SDS011;6529;50.566;9.774;2023-06-22T04:38:38;11.02;;;9.25;;
12925;SDS011;6529;50.566;9.774;2023-06-22T04:41:04;10.88;;;9.88;;
12925;SDS011;6529;50.566;9.774;2023-06-22T04:43:29;11.38;;;10.23;;
12925;SDS011;6529;50.566;9.774;2023-06-22T04:45:58;10.07;;;9.00;;
12925;SDS011;6529;50.566;9.774;2023-06-22T04:48:29;9.57;;;8.68;;
12925;SDS011;6529;50.566;9.774;2023-06-22T04:50:58;9.68;;;8.75;;
12925;SDS011;6529;50.566;9.774;2023-06-22T04:53:28;9.20;;;8.30;;
12925;SDS011;6529;50.566;9.774;2023-06-22T04:55:54;10.57;;;9.00;;
12925;SDS011;6529;50.566;9.774;2023-06-22T04:58:20;9.73;;;8.82;;
12925;SDS011;6529;50.566;9.774;2023-06-22T05:00:46;9.63;;;8.50;;
12925;SDS011;6529;50.566;9.774;2023-06-22T05:03:12;9.65;;;8.35;;
12925;SDS011;6529;50.566;9.774;2023-06-22T05:05:38;9.60;;;8.70;;
12925;SDS011;6529;50.566;9.774;2023-06-22T05:08:04;10.25;;;8.93;;
12925;SDS011;6529;50.566;9.774;2023-06-22T05:10:32;12.45;;;10.10;;
12925;SDS011;6529;50.566;9.774;2023-06-22T05:12:58;11.48;;;10.00;;
12925;SDS011;6529;50.566;9.774;2023-06-22T05:15:24;11.48;;;10.20;;
12925;SDS011;6529;50.566;9.774;2023-06-22T05:17:53;10.38;;;9.30;;
12925;SDS011;6529;50.566;9.774;2023-06-22T05:20:18;9.85;;;8.95;;
12925;SDS011;6529;50.566;9.774;2023-06-22T05:22:44;10.23;;;9.18;;
12925;SDS011;6529;50.566;9.774;2023-06-22T05:25:10;10.20;;;9.20;;
12925;SDS011;6529;50.566;9.774;2023-06-22T05:27:36;10.35;;;9.25;;
12925;SDS011;6529;50.566;9.774;2023-06-22T05:30:06;10.63;;;9.63;;
12925;SDS011;6529;50.566;9.774;2023-06-22T05:32:32;11.40;;;10.30;;
12925;SDS011;6529;50.566;9.774;2023-06-22T05:34:58;10.68;;;9.57;;
12925;SDS011;6529;50.566;9.774;2023-06-22T05:37:24;11.35;;;9.18;;
12925;SDS011;6529;50.566;9.774;2023-06-22T05:39:50;10.77;;;9.60;;
12925;SDS011;6529;50.566;9.774;2023-06-22T05:42:15;10.77;;;9.77;;
12925;SDS011;6529;50.566;9.774;2023-06-22T05:44:41;9.75;;;8.80;;
12925;SDS011;6529;50.566;9.774;2023-06-22T05:47:07;10.18;;;9.18;;
12925;SDS011;6529;50.566;9.774;2023-06-22T05:49:32;11.52;;;9.70;;
12925;SDS011;6529;50.566;9.774;2023-06-22T05:51:58;8.57;;;7.72;;
12925;SDS011;6529;50.566;9.774;2023-06-22T05:54:25;8.60;;;7.78;;
12925;SDS011;6529;50.566;9.774;2023-06-22T05:56:52;7.82;;;6.80;;
12925;SDS011;6529;50.566;9.774;2023-06-22T05:59:17;7.55;;;6.75;;
12925;SDS011;6529;50.566;9.774;2023-06-22T06:01:43;10.90;;;9.13;;
12925;SDS011;6529;50.566;9.774;2023-06-22T06:04:09;9.55;;;8.57;;
12925;SDS011;6529;50.566;9.774;2023-06-22T06:06:34;9.68;;;8.50;;
12925;SDS011;6529;50.566;9.774;2023-06-22T06:09:03;9.52;;;8.63;;
12925;SDS011;6529;50.566;9.774;2023-06-22T06:11:29;9.85;;;8.85;;
12925;SDS011;6529;50.566;9.774;2023-06-22T06:13:55;10.40;;;9.32;;
12925;SDS011;6529;50.566;9.774;2023-06-22T06:16:20;9.68;;;8.35;;
12925;SDS011;6529;50.566;9.774;2023-06-22T06:18:47;10.13;;;9.13;;
12925;SDS011;6529;50.566;9.774;2023-06-22T06:21:14;10.95;;;9.70;;
12925;SDS011;6529;50.566;9.774;2023-06-22T06:23:40;10.85;;;9.70;;
12925;SDS011;6529;50.566;9.774;2023-06-22T06:26:05;10.88;;;9.63;;
12925;SDS011;6529;50.566;9.774;2023-06-22T06:28:32;11.07;;;9.98;;
12925;SDS011;6529;50.566;9.774;2023-06-22T06:30:58;9.75;;;8.82;;
12925;SDS011;6529;50.566;9.774;2023-06-22T06:33:23;8.18;;;7.43;;
12925;SDS011;6529;50.566;9.774;2023-06-22T06:35:49;8.07;;;7.30;;
12925;SDS011;6529;50.566;9.774;2023-06-22T06:38:15;7.43;;;6.82;;
12925;SDS011;6529;50.566;9.774;2023-06-22T06:40:40;9.77;;;8.82;;
12925;SDS011;6529;50.566;9.774;2023-06-22T06:43:06;10.45;;;9.45;;
12925;SDS011;6529;50.566;9.774;2023-06-22T06:45:31;11.25;;;9.82;;
12925;SDS011;6529;50.566;9.774;2023-06-22T06:47:59;10.45;;;9.23;;
12925;SDS011;6529;50.566;9.774;2023-06-22T06:50:25;9.93;;;8.93;;
12925;SDS011;6529;50.566;9.774;2023-06-22T06:52:50;10.15;;;9.15;;
12925;SDS011;6529;50.566;9.774;2023-06-22T06:55:16;10.02;;;8.95;;
12925;SDS011;6529;50.566;9.774;2023-06-22T06:57:42;9.90;;;8.93;;
12925;SDS011;6529;50.566;9.774;2023-06-22T07:00:09;10.32;;;9.32;;
12925;SDS011;6529;50.566;9.774;2023-06-22T07:02:37;8.43;;;7.07;;
12925;SDS011;6529;50.566;9.774;2023-06-22T07:05:05;7.72;;;6.85;;
12925;SDS011;6529;50.566;9.774;2023-06-22T07:07:31;8.48;;;7.72;;
12925;SDS011;6529;50.566;9.774;2023-06-22T07:09:56;9.00;;;8.10;;
12925;SDS011;6529;50.566;9.774;2023-06-22T07:12:22;10.60;;;9.57;;
12925;SDS011;6529;50.566;9.774;2023-06-22T07:14:48;9.85;;;8.93;;
12925;SDS011;6529;50.566;9.774;2023-06-22T07:17:13;12.15;;;8.95;;
12925;SDS011;6529;50.566;9.774;2023-06-22T07:19:39;8.55;;;7.50;;
12925;SDS011;6529;50.566;9.774;2023-06-22T07:22:07;10.07;;;9.07;;
12925;SDS011;6529;50.566;9.774;2023-06-22T07:24:32;10.05;;;9.15;;
12925;SDS011;6529;50.566;9.774;2023-06-22T07:26:58;9.88;;;8.98;;
12925;SDS011;6529;50.566;9.774;2023-06-22T07:29:24;10.43;;;9.43;;
12925;SDS011;6529;50.566;9.774;2023-06-22T07:31:52;9.68;;;8.73;;
12925;SDS011;6529;50.566;9.774;2023-06-22T07:34:18;9.35;;;8.55;;
12925;SDS011;6529;50.566;9.774;2023-06-22T07:36:44;8.88;;;7.97;;
12925;SDS011;6529;50.566;9.774;2023-06-22T07:39:10;9.77;;;8.88;;
12925;SDS011;6529;50.566;9.774;2023-06-22T07:41:36;9.32;;;8.43;;
12925;SDS011;6529;50.566;9.774;2023-06-22T07:44:02;9.07;;;8.27;;
12925;SDS011;6529;50.566;9.774;2023-06-22T07:46:28;9.07;;;7.93;;
12925;SDS011;6529;50.566;9.774;2023-06-22T07:48:55;10.13;;;9.15;;
12925;SDS011;6529;50.566;9.774;2023-06-22T07:51:24;8.48;;;7.78;;
12925;SDS011;6529;50.566;9.774;2023-06-22T07:53:50;8.68;;;7.90;;
12925;SDS011;6529;50.566;9.774;2023-06-22T07:56:16;8.93;;;8.02;;
12925;SDS011;6529;50.566;9.774;2023-06-22T07:58:45;9.70;;;8.18;;
12925;SDS011;6529;50.566;9.774;2023-06-22T08:01:12;8.23;;;7.43;;
12925;SDS011;6529;50.566;9.774;2023-06-22T08:03:39;7.82;;;7.07;;
12925;SDS011;6529;50.566;9.774;2023-06-22T08:06:04;7.68;;;6.95;;
12925;SDS011;6529;50.566;9.774;2023-06-22T08:08:31;8.48;;;7.68;;
12925;SDS011;6529;50.566;9.774;2023-06-22T08:10:56;8.25;;;7.50;;
12925;SDS011;6529;50.566;9.774;2023-06-22T08:13:22;8.13;;;7.43;;
12925;SDS011;6529;50.566;9.774;2023-06-22T08:15:47;8.20;;;7.45;;
12925;SDS011;6529;50.566;9.774;2023-06-22T08:18:13;8.65;;;7.82;;
12925;SDS011;6529;50.566;9.774;2023-06-22T08:20:39;7.80;;;7.10;;
12925;SDS011;6529;50.566;9.774;2023-06-22T08:23:05;8.25;;;7.00;;
12925;SDS011;6529;50.566;9.774;2023-06-22T08:25:34;7.57;;;6.80;;
12925;SDS011;6529;50.566;9.774;2023-06-22T08:28:01;9.32;;;7.15;;
12925;SDS011;6529;50.566;9.774;2023-06-22T08:30:27;6.88;;;6.30;;
12925;SDS011;6529;50.566;9.774;2023-06-22T08:32:53;8.18;;;7.20;;
12925;SDS011;6529;50.566;9.774;2023-06-22T08:35:19;6.45;;;5.88;;
12925;SDS011;6529;50.566;9.774;2023-06-22T08:37:45;6.20;;;5.60;;
12925;SDS011;6529;50.566;9.774;2023-06-22T08:40:17;6.18;;;5.25;;
12925;SDS011;6529;50.566;9.774;2023-06-22T08:42:44;6.80;;;5.65;;
12925;SDS011;6529;50.566;9.774;2023-06-22T08:45:10;6.55;;;5.57;;
12925;SDS011;6529;50.566;9.774;2023-06-22T08:47:36;6.60;;;5.50;;
12925;SDS011;6529;50.566;9.774;2023-06-22T08:50:02;6.55;;;5.95;;
12925;SDS011;6529;50.566;9.774;2023-06-22T08:52:28;5.70;;;5.20;;
12925;SDS011;6529;50.566;9.774;2023-06-22T08:54:54;5.82;;;5.28;;
12925;SDS011;6529;50.566;9.774;2023-06-22T08:57:20;5.60;;;5.07;;
12925;SDS011;6529;50.566;9.774;2023-06-22T08:59:46;5.85;;;5.15;;
12925;SDS011;6529;50.566;9.774;2023-06-22T09:02:12;6.10;;;5.50;;
12925;SDS011;6529;50.566;9.774;2023-06-22T09:04:37;6.63;;;5.15;;
12925;SDS011;6529;50.566;9.774;2023-06-22T09:07:03;5.45;;;5.05;;
12925;SDS011;6529;50.566;9.774;2023-06-22T09:09:29;6.45;;;5.28;;
12925;SDS011;6529;50.566;9.774;2023-06-22T09:11:55;24.42;;;21.48;;
12925;SDS011;6529;50.566;9.774;2023-06-22T09:14:20;7.07;;;6.10;;
12925;SDS011;6529;50.566;9.774;2023-06-22T09:16:46;6.30;;;5.40;;
12925;SDS011;6529;50.566;9.774;2023-06-22T09:19:12;5.63;;;5.13;;
12925;SDS011;6529;50.566;9.774;2023-06-22T09:21:37;5.97;;;5.10;;
12925;SDS011;6529;50.566;9.774;2023-06-22T09:24:03;5.57;;;5.03;;
12925;SDS011;6529;50.566;9.774;2023-06-22T09:26:29;5.63;;;5.07;;
12925;SDS011;6529;50.566;9.774;2023-06-22T09:28:55;5.80;;;5.15;;
12925;SDS011;6529;50.566;9.774;2023-06-22T09:31:20;6.05;;;5.43;;
12925;SDS011;6529;50.566;9.774;2023-06-22T09:33:54;5.70;;;5.15;;
12925;SDS011;6529;50.566;9.774;2023-06-22T09:36:20;6.07;;;5.43;;
12925;SDS011;6529;50.566;9.774;2023-06-22T09:38:47;5.38;;;4.90;;
12925;SDS011;6529;50.566;9.774;2023-06-22T09:41:13;6.18;;;5.50;;
12925;SDS011;6529;50.566;9.774;2023-06-22T09:43:38;6.10;;;5.50;;
12925;SDS011;6529;50.566;9.774;2023-06-22T09:46:04;5.72;;;5.22;;
12925;SDS011;6529;50.566;9.774;2023-06-22T09:48:30;6.28;;;5.68;;
12925;SDS011;6529;50.566;9.774;2023-06-22T09:50:56;5.57;;;5.07;;
12925;SDS011;6529;50.566;9.774;2023-06-22T09:53:22;6.03;;;5.40;;
12925;SDS011;6529;50.566;9.774;2023-06-22T09:55:47;6.25;;;5.13;;
12925;SDS011;6529;50.566;9.774;2023-06-22T09:58:13;6.07;;;5.50;;
12925;SDS011;6529;50.566;9.774;2023-06-22T10:00:38;5.68;;;5.20;;
12925;SDS011;6529;50.566;9.774;2023-06-22T10:03:06;5.60;;;5.10;;
12925;SDS011;6529;50.566;9.774;2023-06-22T10:05:32;5.57;;;5.05;;
12925;SDS011;6529;50.566;9.774;2023-06-22T10:07:57;5.80;;;5.20;;
12925;SDS011;6529;50.566;9.774;2023-06-22T10:10:23;6.22;;;5.63;;
12925;SDS011;6529;50.566;9.774;2023-06-22T10:12:54;6.38;;;5.78;;
12925;SDS011;6529;50.566;9.774;2023-06-22T10:15:22;6.63;;;5.25;;
12925;SDS011;6529;50.566;9.774;2023-06-22T10:17:48;5.80;;;5.20;;
12925;SDS011;6529;50.566;9.774;2023-06-22T10:20:13;6.05;;;5.30;;
12925;SDS011;6529;50.566;9.774;2023-06-22T10:22:40;5.82;;;5.30;;
12925;SDS011;6529;50.566;9.774;2023-06-22T10:25:07;5.85;;;5.20;;
12925;SDS011;6529;50.566;9.774;2023-06-22T10:27:33;5.57;;;4.85;;
12925;SDS011;6529;50.566;9.774;2023-06-22T10:29:59;5.30;;;4.80;;
12925;SDS011;6529;50.566;9.774;2023-06-22T10:32:25;5.43;;;4.93;;
12925;SDS011;6529;50.566;9.774;2023-06-22T10:34:50;5.32;;;4.82;;
12925;SDS011;6529;50.566;9.774;2023-06-22T10:37:16;5.30;;;4.80;;
12925;SDS011;6529;50.566;9.774;2023-06-22T10:39:41;6.40;;;4.82;;
12925;SDS011;6529;50.566;9.774;2023-06-22T10:42:07;5.93;;;4.93;;
12925;SDS011;6529;50.566;9.774;2023-06-22T10:44:33;5.88;;;5.20;;
12925;SDS011;6529;50.566;9.774;2023-06-22T10:46:58;4.72;;;4.32;;
12925;SDS011;6529;50.566;9.774;2023-06-22T10:49:24;6.28;;;4.90;;
12925;SDS011;6529;50.566;9.774;2023-06-22T10:51:49;4.80;;;4.40;;
12925;SDS011;6529;50.566;9.774;2023-06-22T10:54:15;5.30;;;4.72;;
12925;SDS011;6529;50.566;9.774;2023-06-22T10:56:43;4.82;;;4.40;;
12925;SDS011;6529;50.566;9.774;2023-06-22T10:59:08;5.00;;;4.60;;
12925;SDS011;6529;50.566;9.774;2023-06-22T11:01:34;5.38;;;4.72;;
12925;SDS011;6529;50.566;9.774;2023-06-22T11:04:00;4.93;;;4.40;;
12925;SDS011;6529;50.566;9.774;2023-06-22T11:06:25;5.43;;;4.43;;
12925;SDS011;6529;50.566;9.774;2023-06-22T11:08:51;4.70;;;4.10;;
12925;SDS011;6529;50.566;9.774;2023-06-22T11:11:16;4.40;;;4.00;;
12925;SDS011;6529;50.566;9.774;2023-06-22T11:13:43;4.63;;;4.22;;
12925;SDS011;6529;50.566;9.774;2023-06-22T11:16:09;5.25;;;4.20;;
12925;SDS011;6529;50.566;9.774;2023-06-22T11:18:35;5.65;;;4.10;;
12925;SDS011;6529;50.566;9.774;2023-06-22T11:21:01;4.93;;;4.35;;
12925;SDS011;6529;50.566;9.774;2023-06-22T11:23:26;4.85;;;4.32;;
12925;SDS011;6529;50.566;9.774;2023-06-22T11:25:53;4.22;;;3.83;;
12925;SDS011;6529;50.566;9.774;2023-06-22T11:28:19;4.65;;;4.20;;
12925;SDS011;6529;50.566;9.774;2023-06-22T11:30:44;4.45;;;4.00;;
12925;SDS011;6529;50.566;9.774;2023-06-22T11:33:10;4.82;;;4.20;;
12925;SDS011;6529;50.566;9.774;2023-06-22T11:35:36;5.38;;;4.18;;
12925;SDS011;6529;50.566;9.774;2023-06-22T11:38:01;4.60;;;4.18;;
12925;SDS011;6529;50.566;9.774;2023-06-22T11:40:28;4.40;;;4.00;;
12925;SDS011;6529;50.566;9.774;2023-06-22T11:42:54;5.68;;;4.38;;
12925;SDS011;6529;50.566;9.774;2023-06-22T11:45:20;4.32;;;3.90;;
12925;SDS011;6529;50.566;9.774;2023-06-22T11:47:46;5.93;;;3.80;;
12925;SDS011;6529;50.566;9.774;2023-06-22T11:50:11;4.47;;;4.07;;
12925;SDS011;6529;50.566;9.774;2023-06-22T11:52:37;4.95;;;4.45;;
12925;SDS011;6529;50.566;9.774;2023-06-22T11:55:03;4.57;;;4.15;;
12925;SDS011;6529;50.566;9.774;2023-06-22T11:57:30;4.45;;;3.60;;
12925;SDS011;6529;50.566;9.774;2023-06-22T11:59:58;4.78;;;4.28;;
12925;SDS011;6529;50.566;9.774;2023-06-22T12:02:23;4.20;;;3.80;;
12925;SDS011;6529;50.566;9.774;2023-06-22T12:04:49;5.88;;;4.55;;
12925;SDS011;6529;50.566;9.774;2023-06-22T12:07:17;5.07;;;4.57;;
12925;SDS011;6529;50.566;9.774;2023-06-22T12:09:43;4.75;;;4.20;;
12925;SDS011;6529;50.566;9.774;2023-06-22T12:12:09;7.22;;;4.47;;
12925;SDS011;6529;50.566;9.774;2023-06-22T12:14:35;5.22;;;4.43;;
12925;SDS011;6529;50.566;9.774;2023-06-22T12:17:00;6.20;;;4.55;;
12925;SDS011;6529;50.566;9.774;2023-06-22T12:19:26;5.30;;;4.78;;
12925;SDS011;6529;50.566;9.774;2023-06-22T12:21:52;5.28;;;4.65;;
12925;SDS011;6529;50.566;9.774;2023-06-22T12:24:17;6.13;;;4.75;;
12925;SDS011;6529;50.566;9.774;2023-06-22T12:26:43;7.20;;;4.90;;
12925;SDS011;6529;50.566;9.774;2023-06-22T12:29:09;5.80;;;5.07;;
12925;SDS011;6529;50.566;9.774;2023-06-22T12:31:35;5.22;;;4.78;;
12925;SDS011;6529;50.566;9.774;2023-06-22T12:34:03;5.40;;;4.90;;
12925;SDS011;6529;50.566;9.774;2023-06-22T12:36:29;5.80;;;4.93;;
12925;SDS011;6529;50.566;9.774;2023-06-22T12:38:55;5.78;;;5.18;;
12925;SDS011;6529;50.566;9.774;2023-06-22T12:41:20;5.70;;;5.10;;
12925;SDS011;6529;50.566;9.774;2023-06-22T12:43:46;6.35;;;4.78;;
12925;SDS011;6529;50.566;9.774;2023-06-22T12:46:12;5.55;;;4.80;;
12925;SDS011;6529;50.566;9.774;2023-06-22T12:48:37;11.10;;;5.05;;
12925;SDS011;6529;50.566;9.774;2023-06-22T12:51:07;6.70;;;5.00;;
12925;SDS011;6529;50.566;9.774;2023-06-22T12:53:34;6.85;;;4.80;;
12925;SDS011;6529;50.566;9.774;2023-06-22T12:55:59;6.40;;;4.88;;
12925;SDS011;6529;50.566;9.774;2023-06-22T12:58:25;6.13;;;5.18;;
12925;SDS011;6529;50.566;9.774;2023-06-22T13:00:50;7.78;;;5.32;;
12925;SDS011;6529;50.566;9.774;2023-06-22T13:03:16;5.63;;;4.95;;
12925;SDS011;6529;50.566;9.774;2023-06-22T13:05:41;7.05;;;5.00;;
12925;SDS011;6529;50.566;9.774;2023-06-22T13:08:07;7.10;;;5.38;;
12925;SDS011;6529;50.566;9.774;2023-06-22T13:10:33;7.53;;;5.53;;
12925;SDS011;6529;50.566;9.774;2023-06-22T13:12:59;8.00;;;5.32;;
12925;SDS011;6529;50.566;9.774;2023-06-22T13:15:28;8.13;;;5.53;;
12925;SDS011;6529;50.566;9.774;2023-06-22T13:17:54;9.27;;;5.25;;
12925;SDS011;6529;50.566;9.774;2023-06-22T13:20:20;6.20;;;5.25;;
12925;SDS011;6529;50.566;9.774;2023-06-22T13:22:45;5.93;;;5.25;;
12925;SDS011;6529;50.566;9.774;2023-06-22T13:25:11;6.07;;;4.93;;
12925;SDS011;6529;50.566;9.774;2023-06-22T13:27:41;5.72;;;5.20;;
12925;SDS011;6529;50.566;9.774;2023-06-22T13:30:07;6.65;;;5.63;;
12925;SDS011;6529;50.566;9.774;2023-06-22T13:32:33;6.38;;;5.10;;
12925;SDS011;6529;50.566;9.774;2023-06-22T13:34:59;7.18;;;4.88;;
12925;SDS011;6529;50.566;9.774;2023-06-22T13:37:25;5.90;;;4.90;;
12925;SDS011;6529;50.566;9.774;2023-06-22T13:39:51;5.95;;;5.05;;
12925;SDS011;6529;50.566;9.774;2023-06-22T13:42:17;5.85;;;5.25;;
12925;SDS011;6529;50.566;9.774;2023-06-22T13:44:42;8.18;;;5.72;;
12925;SDS011;6529;50.566;9.774;2023-06-22T13:47:08;6.35;;;5.07;;
12925;SDS011;6529;50.566;9.774;2023-06-22T13:49:34;7.35;;;5.70;;
12925;SDS011;6529;50.566;9.774;2023-06-22T13:52:00;7.45;;;5.82;;
12925;SDS011;6529;50.566;9.774;2023-06-22T13:54:25;8.82;;;5.30;;
12925;SDS011;6529;50.566;9.774;2023-06-22T13:56:51;8.43;;;5.60;;
12925;SDS011;6529;50.566;9.774;2023-06-22T13:59:16;7.30;;;5.38;;
12925;SDS011;6529;50.566;9.774;2023-06-22T14:01:42;7.47;;;5.57;;
12925;SDS011;6529;50.566;9.774;2023-06-22T14:04:08;7.72;;;5.70;;
12925;SDS011;6529;50.566;9.774;2023-06-22T14:06:34;6.75;;;5.55;;
12925;SDS011;6529;50.566;9.774;2023-06-22T14:09:00;8.27;;;5.50;;
12925;SDS011;6529;50.566;9.774;2023-06-22T14:11:25;6.53;;;5.30;;
12925;SDS011;6529;50.566;9.774;2023-06-22T14:13:51;8.38;;;5.57;;
12925;SDS011;6529;50.566;9.774;2023-06-22T14:16:17;7.63;;;5.85;;
12925;SDS011;6529;50.566;9.774;2023-06-22T14:18:42;7.90;;;5.55;;
12925;SDS011;6529;50.566;9.774;2023-06-22T14:21:08;8.52;;;6.00;;
12925;SDS011;6529;50.566;9.774;2023-06-22T14:23:33;6.78;;;6.07;;
12925;SDS011;6529;50.566;9.774;2023-06-22T14:25:59;7.97;;;6.10;;
12925;SDS011;6529;50.566;9.774;2023-06-22T14:28:25;8.07;;;5.93;;
12925;SDS011;6529;50.566;9.774;2023-06-22T14:30:50;8.18;;;6.28;;
12925;SDS011;6529;50.566;9.774;2023-06-22T14:33:16;7.15;;;6.20;;
12925;SDS011;6529;50.566;9.774;2023-06-22T14:35:41;7.18;;;6.00;;
12925;SDS011;6529;50.566;9.774;2023-06-22T14:38:07;7.78;;;5.78;;
12925;SDS011;6529;50.566;9.774;2023-06-22T14:40:32;7.63;;;5.68;;
12925;SDS011;6529;50.566;9.774;2023-06-22T14:42:58;7.82;;;6.07;;
12925;SDS011;6529;50.566;9.774;2023-06-22T14:45:24;7.05;;;5.82;;
12925;SDS011;6529;50.566;9.774;2023-06-22T14:47:49;7.07;;;5.72;;
12925;SDS011;6529;50.566;9.774;2023-06-22T14:50:15;6.75;;;5.32;;
12925;SDS011;6529;50.566;9.774;2023-06-22T14:52:40;7.30;;;5.95;;
12925;SDS011;6529;50.566;9.774;2023-06-22T14:55:06;8.32;;;5.85;;
12925;SDS011;6529;50.566;9.774;2023-06-22T14:57:32;7.95;;;5.60;;
12925;SDS011;6529;50.566;9.774;2023-06-22T14:59:58;8.07;;;5.68;;
12925;SDS011;6529;50.566;9.774;2023-06-22T15:02:23;6.65;;;5.93;;
12925;SDS011;6529;50.566;9.774;2023-06-22T15:04:49;6.65;;;5.45;;
12925;SDS011;6529;50.566;9.774;2023-06-22T15:07:15;8.27;;;5.82;;